Time;durP1;ratioP1;P1;durP2;ratioP2;P2;SDS_P1;SDS_P2;PMS_P1;PMS_P2;Temp;Humidity;BMP_temperature;BMP_pressure;BME280_temperature;BME280_humidity;BME280_pressure;Samples;Min_cycle;Max_cycle;Signal;HPM_P1;HPM_P2
2023/05/31 00:01:30;;;;;;;5.97;4.50;;;;;;;16.94;100.00;64747.91;5031219;28;20194;-56
2023/05/31 00:03:55;;;;;;;7.82;4.65;;;;;;;17.07;100.00;64762.25;5031229;28;20214;-58
2023/05/31 00:06:21;;;;;;;5.18;4.55;;;;;;;17.07;100.00;64764.78;5031079;28;20213;-59
2023/05/31 00:08:46;;;;;;;6.80;4.32;;;;;;;17.08;100.00;64765.88;5031148;28;20209;-59
2023/05/31 00:11:12;;;;;;;6.22;4.28;;;;;;;16.99;100.00;64753.44;5031122;28;20619;-58
2023/05/31 00:13:38;;;;;;;5.88;4.63;;;;;;;16.93;100.00;64744.28;5031005;28;20202;-58
2023/05/31 00:16:05;;;;;;;5.35;4.18;;;;;;;17.12;100.00;64765.19;5029605;28;20235;-58
2023/05/31 00:18:30;;;;;;;5.90;4.30;;;;;;;17.19;100.00;64775.47;5030800;28;20264;-58
2023/05/31 00:20:56;;;;;;;5.88;4.78;;;;;;;17.08;100.00;64766.44;5030973;28;20680;-59
2023/05/31 00:23:21;;;;;;;5.97;4.55;;;;;;;17.20;100.00;64774.00;5031017;28;20206;-58
2023/05/31 00:25:47;;;;;;;5.20;4.25;;;;;;;17.15;100.00;64771.59;5030756;28;20241;-59
2023/05/31 00:28:12;;;;;;;5.47;4.57;;;;;;;17.32;100.00;64792.88;5029478;28;20237;-59
2023/05/31 00:30:37;;;;;;;6.30;4.97;;;;;;;17.41;100.00;64800.22;5030770;28;20190;-58
2023/05/31 00:33:04;;;;;;;6.72;4.00;;;;;;;17.39;100.00;64795.47;5030636;28;20285;-58
2023/05/31 00:35:29;;;;;;;6.55;4.72;;;;;;;17.37;100.00;64795.81;5030850;28;20190;-58
2023/05/31 00:37:55;;;;;;;4.55;4.07;;;;;;;17.27;100.00;64784.81;5030728;28;20267;-58
2023/05/31 00:40:20;;;;;;;7.53;4.68;;;;;;;17.14;100.00;64769.94;5030565;28;20182;-58
2023/05/31 00:42:46;;;;;;;7.97;4.38;;;;;;;17.08;100.00;64763.34;5030742;28;20204;-58
2023/05/31 00:45:11;;;;;;;6.03;4.53;;;;;;;17.01;100.00;64758.72;5030651;28;20644;-56
2023/05/31 00:47:37;;;;;;;6.82;4.47;;;;;;;17.15;100.00;64771.06;5030474;28;20209;-56
2023/05/31 00:50:04;;;;;;;7.97;4.43;;;;;;;17.13;100.00;64768.84;5030375;28;20213;-56
2023/05/31 00:52:31;;;;;;;5.15;4.75;;;;;;;17.00;100.00;64751.97;5030313;28;20182;-56
2023/05/31 00:54:57;;;;;;;7.45;4.20;;;;;;;16.88;100.00;64741.31;5030456;28;20217;-59
2023/05/31 00:57:22;;;;;;;9.40;5.15;;;;;;;16.88;100.00;64739.31;5030229;28;20186;-56
2023/05/31 00:59:48;;;;;;;7.78;4.85;;;;;;;17.01;100.00;64753.09;5030792;28;20213;-56
2023/05/31 01:02:17;;;;;;;7.88;5.05;;;;;;;17.15;100.00;64771.06;5030484;28;20178;-56
2023/05/31 01:04:42;;;;;;;4.72;3.55;;;;;;;17.15;100.00;64771.06;5030574;28;20307;-57
2023/05/31 01:07:09;;;;;;;7.10;4.47;;;;;;;17.01;100.00;64758.19;5030304;28;20723;-57
2023/05/31 01:09:36;;;;;;;6.28;4.72;;;;;;;17.22;100.00;64781.31;5030460;28;20218;-55
2023/05/31 01:12:08;;;;;;;5.82;4.57;;;;;;;17.30;100.00;64790.66;5030222;28;20190;-56
2023/05/31 01:14:48;;;;;;;4.90;4.20;;;;;;;17.27;100.00;64782.25;5030205;28;20768;-55
2023/05/31 01:18:09;;;;;;;6.13;4.55;;;;;;;17.05;100.00;64760.03;5030260;28;20686;-58
2023/05/31 01:20:35;;;;;;;5.28;4.63;;;;;;;17.17;100.00;64773.25;5000652;28;20574;-60
2023/05/31 01:23:09;;;;;;;6.07;4.80;;;;;;;17.03;100.00;64757.84;5030316;28;20213;-58
2023/05/31 01:26:29;;;;;;;6.68;4.68;;;;;;;17.06;100.00;64761.69;5030234;28;20319;-58
2023/05/31 01:28:59;;;;;;;7.55;5.07;;;;;;;17.05;100.00;64760.56;5018719;28;20248;-58
2023/05/31 01:31:27;;;;;;;5.45;4.18;;;;;;;16.92;100.00;64745.72;5033616;28;20282;-58
2023/05/31 01:33:53;;;;;;;6.07;4.57;;;;;;;16.94;100.00;64747.91;5033644;28;20214;-59
2023/05/31 01:36:19;;;;;;;5.60;4.43;;;;;;;16.94;100.00;64748.47;5033337;28;20190;-58
2023/05/31 01:38:45;;;;;;;4.18;3.63;;;;;;;16.92;100.00;64745.72;5033534;28;20214;-58
2023/05/31 01:41:12;;;;;;;5.20;4.05;;;;;;;16.97;100.00;64754.31;5033478;28;20753;-58
2023/05/31 01:43:43;;;;;;;6.53;4.50;;;;;;;17.03;100.00;64755.28;5033181;28;20213;-58
2023/05/31 01:46:10;;;;;;;4.25;3.80;;;;;;;17.07;100.00;64762.78;5033186;28;20202;-59
2023/05/31 01:48:37;;;;;;;6.32;4.20;;;;;;;17.07;100.00;64762.25;5033030;28;20268;-59
2023/05/31 01:51:08;;;;;;;5.50;4.40;;;;;;;17.08;100.00;64760.78;5033120;28;20182;-59
2023/05/31 01:53:34;;;;;;;6.25;3.50;;;;;;;17.01;100.00;64756.16;5033314;28;20217;-59
2023/05/31 01:56:00;;;;;;;5.28;4.38;;;;;;;17.07;100.00;64762.78;5032970;28;20312;-58
2023/05/31 01:58:27;;;;;;;4.57;3.78;;;;;;;17.29;100.00;64783.94;5033074;28;20264;-59
2023/05/31 02:00:53;;;;;;;5.82;4.03;;;;;;;17.29;100.00;64786.47;5032881;28;20589;-59
2023/05/31 02:03:18;;;;;;;7.93;4.00;;;;;;;17.23;100.00;64780.41;5032979;28;20217;-58
2023/05/31 02:06:00;;;;;;;5.65;4.07;;;;;;;17.16;100.00;64772.69;5032890;28;20648;-58
2023/05/31 02:08:26;;;;;;;6.05;3.78;;;;;;;17.11;100.00;64766.66;5033013;28;20210;-58
2023/05/31 02:10:52;;;;;;;4.95;3.83;;;;;;;17.15;100.00;64773.59;5032824;28;20186;-59
2023/05/31 02:13:18;;;;;;;5.30;3.70;;;;;;;17.15;100.00;64773.59;5032679;28;20209;-58
2023/05/31 02:15:44;;;;;;;5.10;3.75;;;;;;;17.30;100.00;64788.13;5032592;28;20198;-59
2023/05/31 02:18:10;;;;;;;4.10;3.70;;;;;;;17.20;100.00;64774.56;5032686;28;20221;-59
2023/05/31 02:20:35;;;;;;;9.40;3.95;;;;;;;17.16;100.00;64770.16;5032576;28;20186;-59
2023/05/31 02:23:01;;;;;;;6.13;4.55;;;;;;;17.11;100.00;64769.19;5032582;28;20244;-59
2023/05/31 02:25:26;;;;;;;4.15;3.75;;;;;;;17.17;100.00;64773.78;5032497;28;20205;-59
2023/05/31 02:27:52;;;;;;;4.47;3.50;;;;;;;17.19;100.00;64776.00;5032160;28;20222;-59
2023/05/31 02:30:18;;;;;;;4.38;3.78;;;;;;;17.26;100.00;64783.16;5032385;28;20193;-60
2023/05/31 02:32:43;;;;;;;5.25;3.40;;;;;;;17.12;100.00;64768.28;5032471;28;20281;-58
2023/05/31 02:35:10;;;;;;;5.38;3.90;;;;;;;17.45;100.00;64801.56;5032330;28;20606;-56
2023/05/31 02:37:38;;;;;;;5.53;3.83;;;;;;;17.50;100.00;64807.09;5032180;28;20309;-56
2023/05/31 02:40:08;;;;;;;8.82;4.57;;;;;;;17.36;100.00;64794.19;5031180;28;20209;-56
2023/05/31 02:42:35;;;;;;;5.90;4.78;;;;;;;17.36;100.00;64794.75;5014751;28;20224;-59
2023/05/31 02:45:00;;;;;;;8.23;5.13;;;;;;;17.26;100.00;64786.25;5032009;28;20261;-59
2023/05/31 02:47:25;;;;;;;8.05;5.07;;;;;;;17.03;100.00;64757.84;5032142;28;20210;-58
2023/05/31 02:49:51;;;;;;;9.70;5.07;;;;;;;17.07;100.00;64762.78;5032051;28;20703;-58
2023/05/31 02:52:16;;;;;;;9.20;5.57;;;;;;;17.14;100.00;64773.03;5032129;28;20316;-59
2023/05/31 02:54:42;;;;;;;7.05;5.65;;;;;;;17.20;100.00;64779.09;5032490;28;20202;-58
2023/05/31 02:57:07;;;;;;;8.50;5.55;;;;;;;17.10;100.00;64763.00;5032253;28;20190;-57
2023/05/31 02:59:33;;;;;;;7.93;5.43;;;;;;;16.94;100.00;64745.38;5032262;28;20275;-59
2023/05/31 03:01:58;;;;;;;8.98;5.40;;;;;;;16.99;100.00;64755.97;5031903;28;20278;-58
2023/05/31 03:04:25;;;;;;;7.80;5.53;;;;;;;17.02;100.00;64756.72;5014210;28;20568;-59
2023/05/31 03:06:50;;;;;;;8.73;4.55;;;;;;;17.03;100.00;64760.38;5031723;28;20371;-61
2023/05/31 03:09:16;;;;;;;7.68;4.80;;;;;;;16.92;100.00;64748.25;5031892;28;20202;-58
2023/05/31 03:11:45;;;;;;;5.90;4.72;;;;;;;16.82;100.00;64732.72;5031784;28;20660;-58
2023/05/31 03:14:11;;;;;;;14.50;9.68;;;;;;;16.78;100.00;64731.41;5013938;28;20206;-58
2023/05/31 03:16:37;;;;;;;9.70;6.00;;;;;;;16.71;100.00;64723.69;5031871;28;20240;-59
2023/05/31 03:19:02;;;;;;;17.55;11.82;;;;;;;16.77;100.00;64729.72;5032036;28;20671;-59
2023/05/31 03:21:27;;;;;;;25.02;16.83;;;;;;;16.69;100.00;64721.47;5030591;28;20190;-60
2023/05/31 03:23:53;;;;;;;8.50;5.05;;;;;;;16.89;100.00;64744.97;5030388;28;20199;-56
2023/05/31 03:26:18;;;;;;;10.15;4.60;;;;;;;17.05;100.00;64758.03;5031459;28;20210;-56
2023/05/31 03:28:44;;;;;;;8.23;5.43;;;;;;;17.12;100.00;64767.75;5031638;28;20210;-55
2023/05/31 03:31:09;;;;;;;7.55;5.20;;;;;;;17.07;100.00;64762.25;5031535;28;20187;-56
2023/05/31 03:33:36;;;;;;;10.02;5.78;;;;;;;17.06;100.00;64761.69;5031590;28;20214;-56
2023/05/31 03:36:02;;;;;;;9.13;5.43;;;;;;;16.86;100.00;64739.09;5031565;28;20198;-56
2023/05/31 03:38:29;;;;;;;6.82;5.75;;;;;;;16.92;100.00;64745.72;5031612;28;20565;-56
2023/05/31 03:40:54;;;;;;;8.02;5.22;;;;;;;16.94;100.00;64750.47;5031503;28;20197;-60
2023/05/31 03:43:20;;;;;;;8.52;5.93;;;;;;;16.89;100.00;64740.41;5031108;28;20213;-58
2023/05/31 03:45:45;;;;;;;8.27;5.65;;;;;;;16.99;100.00;64750.88;5031346;28;20569;-58
2023/05/31 03:48:11;;;;;;;8.25;6.10;;;;;;;16.93;100.00;64744.81;5031216;28;20214;-59
2023/05/31 03:50:40;;;;;;;13.80;5.45;;;;;;;16.85;100.00;64738.00;5031226;28;20185;-58
2023/05/31 03:53:05;;;;;;;7.50;5.70;;;;;;;16.65;100.00;64717.06;5030211;28;20273;-58
2023/05/31 03:55:32;;;;;;;7.78;5.88;;;;;;;16.75;100.00;64727.53;5029600;28;20224;-59
2023/05/31 03:57:58;;;;;;;8.93;6.40;;;;;;;16.76;100.00;64729.19;5013471;28;20186;-58
2023/05/31 04:00:23;;;;;;;7.88;6.22;;;;;;;16.81;100.00;64734.13;5031063;28;20675;-57
2023/05/31 04:02:49;;;;;;;9.80;5.25;;;;;;;16.89;100.00;64745.50;5031196;28;20213;-59
2023/05/31 04:05:15;;;;;;;6.25;5.22;;;;;;;16.88;100.00;64741.31;5031207;28;20196;-58
2023/05/31 04:07:41;;;;;;;9.98;5.60;;;;;;;16.93;100.00;64746.81;5030987;28;20210;-59
2023/05/31 04:10:07;;;;;;;7.07;5.55;;;;;;;16.91;100.00;64744.63;5030812;28;20645;-60
2023/05/31 04:12:32;;;;;;;11.73;6.63;;;;;;;16.96;100.00;64752.66;5030498;28;20208;-60
2023/05/31 04:14:57;;;;;;;11.00;5.78;;;;;;;17.00;100.00;64757.63;5030879;28;20663;-59
2023/05/31 04:17:23;;;;;;;12.63;6.68;;;;;;;16.83;100.00;64735.81;5030782;28;20182;-59
2023/05/31 04:19:48;;;;;;;9.27;4.75;;;;;;;16.88;100.00;64741.84;5030642;28;20210;-59
2023/05/31 04:22:14;;;;;;;7.10;5.85;;;;;;;16.94;100.00;64748.47;5030694;28;20174;-59
2023/05/31 04:24:39;;;;;;;12.27;5.68;;;;;;;17.07;100.00;64762.25;5031142;28;20212;-59
2023/05/31 04:27:06;;;;;;;10.70;5.63;;;;;;;17.18;100.00;64774.34;5030778;28;20229;-59
2023/05/31 04:29:32;;;;;;;12.38;5.47;;;;;;;17.16;100.00;64774.69;5031046;28;20225;-60
2023/05/31 04:31:58;;;;;;;10.07;5.40;;;;;;;17.16;100.00;64772.69;5030792;28;20664;-59
2023/05/31 04:34:26;;;;;;;9.27;5.47;;;;;;;17.41;100.00;64802.78;5061753;23;20254;-55
2023/05/31 04:36:52;;;;;;;10.80;5.85;;;;;;;17.53;100.00;64815.50;5070992;28;20200;-56
2023/05/31 04:39:22;;;;;;;9.10;5.43;;;;;;;17.59;100.00;64822.09;5057753;28;20601;-56
2023/05/31 04:41:48;;;;;;;7.93;5.32;;;;;;;17.58;100.00;64821.56;5050382;28;20181;-56
2023/05/31 04:44:14;;;;;;;11.02;5.80;;;;;;;17.68;100.00;64829.47;5050577;28;20202;-56
2023/05/31 04:46:42;;;;;;;8.40;5.18;;;;;;;17.82;100.00;64844.91;5049541;28;20220;-56
2023/05/31 04:49:09;;;;;;;8.25;5.30;;;;;;;17.97;100.00;64861.44;5048817;28;20283;-57
2023/05/31 04:51:35;;;;;;;7.60;5.25;;;;;;;18.10;100.00;64875.75;5032232;28;20201;-59
2023/05/31 04:54:01;;;;;;;10.27;5.13;;;;;;;18.21;100.00;64884.81;5049676;28;20217;-60
2023/05/31 04:56:27;;;;;;;8.48;5.53;;;;;;;18.43;100.00;64912.19;5049984;28;20193;-59
2023/05/31 04:58:52;;;;;;;7.13;4.65;;;;;;;18.43;100.00;64912.19;5049792;28;20209;-58
2023/05/31 05:01:17;;;;;;;6.60;5.30;;;;;;;18.45;100.00;64913.84;5049886;28;20723;-58
2023/05/31 05:03:43;;;;;;;22.95;11.32;;;;;;;18.40;100.00;64908.84;5052982;28;20300;-59
2023/05/31 05:06:16;;;;;;;11.27;6.57;;;;;;;18.57;100.00;64923.97;5053186;28;20201;-58
2023/05/31 05:08:42;;;;;;;8.27;5.22;;;;;;;18.68;100.00;64938.66;5053277;28;20209;-57
2023/05/31 05:11:08;;;;;;;8.38;5.25;;;;;;;18.72;100.00;64941.09;5053000;28;20185;-58
2023/05/31 05:13:34;;;;;;;13.10;7.32;;;;;;;18.62;100.00;64932.59;5053292;28;20261;-59
2023/05/31 05:15:59;;;;;;;7.97;5.22;;;;;;;18.66;100.00;64936.47;5052758;28;20674;-59
2023/05/31 05:18:26;;;;;;;11.15;6.28;;;;;;;18.84;100.00;64953.75;5051011;28;20671;-59
2023/05/31 05:20:51;;;;;;;9.82;5.57;;;;;;;18.71;100.00;64939.41;5052963;28;20194;-60
2023/05/31 05:23:17;;;;;;;8.50;7.05;;;;;;;18.59;100.00;64926.16;5053073;28;20260;-59
2023/05/31 05:25:42;;;;;;;7.53;5.90;;;;;;;18.53;100.00;64925.22;5053076;28;20648;-59
2023/05/31 05:28:08;;;;;;;7.43;5.60;;;;;;;18.54;100.00;64925.78;5051933;28;20214;-58
2023/05/31 05:30:33;;;;;;;7.78;5.47;;;;;;;18.44;100.00;64915.84;5052771;28;20190;-56
2023/05/31 05:32:58;;;;;;;7.90;5.43;;;;;;;18.38;100.00;64908.66;5052484;28;20654;-58
2023/05/31 05:35:24;;;;;;;5.88;5.28;;;;;;;18.50;100.00;64919.38;5051691;28;20185;-56
2023/05/31 05:37:50;;;;;;;9.10;6.40;;;;;;;18.53;100.00;64924.66;5050813;28;20197;-56
2023/05/31 05:40:21;;;;;;;11.13;6.68;;;;;;;18.51;100.00;64920.47;5053036;28;20185;-56
2023/05/31 05:42:48;;;;;;;8.40;5.88;;;;;;;18.49;100.00;64917.69;5053013;28;20276;-57
2023/05/31 05:45:13;;;;;;;8.27;6.10;;;;;;;18.66;100.00;64936.47;5052798;28;20264;-58
2023/05/31 05:47:38;;;;;;;10.43;6.22;;;;;;;18.71;100.00;64939.41;5051341;28;20220;-57
2023/05/31 05:50:05;;;;;;;8.05;6.28;;;;;;;18.46;100.00;64914.41;5050986;28;20284;-57
2023/05/31 05:52:30;;;;;;;8.23;6.30;;;;;;;18.49;100.00;64918.25;5052642;28;20251;-56
2023/05/31 05:54:56;;;;;;;10.43;6.32;;;;;;;18.84;100.00;64954.31;5051994;28;20213;-56
2023/05/31 05:57:21;;;;;;;12.25;7.00;;;;;;;19.09;100.00;64981.34;5051176;28;20182;-57
2023/05/31 05:59:48;;;;;;;14.43;5.65;;;;;;;19.51;100.00;65027.75;5052657;28;20252;-56
2023/05/31 06:02:13;;;;;;;9.52;5.65;;;;;;;19.69;99.91;65047.63;5052739;28;20655;-57
2023/05/31 06:04:39;;;;;;;9.57;6.05;;;;;;;19.70;100.00;65050.72;5052753;28;20221;-57
2023/05/31 06:07:05;;;;;;;11.18;6.25;;;;;;;20.16;100.00;65098.41;5052584;28;20240;-57
2023/05/31 06:09:31;;;;;;;10.77;6.38;;;;;;;20.48;100.00;65131.25;5052539;28;20216;-57
2023/05/31 06:11:56;;;;;;;14.30;6.07;;;;;;;20.16;94.99;65100.97;5052625;28;20189;-56
2023/05/31 06:14:21;;;;;;;10.88;6.97;;;;;;;19.79;97.72;65055.53;5052755;28;20674;-59
2023/05/31 06:16:47;;;;;;;13.95;7.20;;;;;;;19.83;97.88;65063.06;5052510;28;20285;-55
2023/05/31 06:19:13;;;;;;;11.20;7.28;;;;;;;19.71;99.63;65052.38;5034758;28;20209;-56
2023/05/31 06:21:38;;;;;;;9.85;6.90;;;;;;;19.68;100.00;65049.06;5052487;28;20567;-56
2023/05/31 06:24:04;;;;;;;14.57;6.97;;;;;;;19.66;100.00;65044.28;5052700;28;20201;-56
2023/05/31 06:26:30;;;;;;;11.20;7.20;;;;;;;19.54;99.47;65033.03;5052507;28;20244;-56
2023/05/31 06:28:59;;;;;;;13.07;7.78;;;;;;;19.54;99.49;65031.03;5052417;28;20711;-56
2023/05/31 06:31:25;;;;;;;9.80;6.32;;;;;;;19.75;98.69;65054.25;5052328;28;20669;-57
2023/05/31 06:33:51;;;;;;;11.60;7.10;;;;;;;19.69;98.76;65050.19;5052382;28;20347;-56
2023/05/31 06:36:16;;;;;;;10.40;6.55;;;;;;;19.45;98.66;65026.22;5052451;28;20562;-57
2023/05/31 06:38:41;;;;;;;10.07;6.63;;;;;;;19.35;98.38;65012.06;5052677;28;20215;-56
2023/05/31 06:41:07;;;;;;;15.18;7.78;;;;;;;19.64;96.98;65042.09;5052280;28;20262;-56
2023/05/31 06:43:32;;;;;;;11.95;6.68;;;;;;;19.84;97.90;65063.63;5052348;28;20682;-57
2023/05/31 06:45:58;;;;;;;14.27;6.93;;;;;;;19.75;98.77;65054.25;5052143;28;20200;-59
2023/05/31 06:48:23;;;;;;;8.38;6.07;;;;;;;19.59;95.59;65039.13;5052350;28;20693;-58
2023/05/31 06:50:48;;;;;;;15.23;6.70;;;;;;;19.82;95.68;65061.97;5052135;28;20181;-58
2023/05/31 06:53:14;;;;;;;11.93;6.15;;;;;;;19.97;94.62;65077.97;5052018;28;20209;-60
2023/05/31 06:55:39;;;;;;;13.65;6.85;;;;;;;20.21;93.89;65107.06;5052052;28;20663;-60
2023/05/31 06:58:05;;;;;;;9.50;6.18;;;;;;;20.15;94.42;65100.44;5051917;28;20198;-59
2023/05/31 07:00:31;;;;;;;8.50;6.10;;;;;;;19.85;95.42;65062.72;5052053;28;20192;-59
2023/05/31 07:02:56;;;;;;;12.05;6.55;;;;;;;20.15;93.07;65097.31;5051939;28;20201;-59
2023/05/31 07:05:22;;;;;;;9.18;5.72;;;;;;;20.24;96.08;65107.28;5052102;28;20197;-55
2023/05/31 07:07:48;;;;;;;13.38;7.10;;;;;;;20.35;94.06;65119.97;5051619;28;20384;-55
2023/05/31 07:10:13;;;;;;;10.35;6.22;;;;;;;20.58;93.47;65144.84;5051851;28;20268;-56
2023/05/31 07:12:39;;;;;;;8.10;5.95;;;;;;;20.35;92.94;65122.53;5051844;28;20196;-56
2023/05/31 07:15:05;;;;;;;9.13;6.15;;;;;;;20.73;92.35;65163.97;5051590;28;20267;-57
2023/05/31 07:17:31;;;;;;;10.05;6.53;;;;;;;20.88;90.54;65178.00;5051748;28;20178;-55
2023/05/31 07:19:56;;;;;;;6.43;5.60;;;;;;;20.48;92.99;65133.81;5051519;28;20710;-57
2023/05/31 07:22:22;;;;;;;10.52;6.05;;;;;;;20.47;91.79;65135.25;5051891;28;20201;-58
2023/05/31 07:24:48;;;;;;;8.02;6.00;;;;;;;20.71;90.30;65162.31;5051056;28;20209;-58
2023/05/31 07:27:13;;;;;;;10.82;6.38;;;;;;;20.93;88.72;65184.09;5050191;28;20213;-58
2023/05/31 07:29:39;;;;;;;9.43;6.35;;;;;;;20.99;91.94;65189.63;5051605;28;20218;-60
2023/05/31 07:32:05;;;;;;;9.63;6.20;;;;;;;21.13;88.95;65208.22;5051464;28;20192;-57
2023/05/31 07:34:31;;;;;;;10.60;6.28;;;;;;;21.53;86.48;65249.34;5051282;28;20343;-56
2023/05/31 07:36:57;;;;;;;9.77;6.57;;;;;;;21.46;85.61;65244.72;5051350;28;20219;-56
2023/05/31 07:39:22;;;;;;;11.15;5.43;;;;;;;21.44;87.11;65236.81;5051347;28;20244;-57
2023/05/31 07:41:47;;;;;;;8.07;6.07;;;;;;;21.60;85.29;65257.09;5051412;28;20270;-57
2023/05/31 07:44:13;;;;;;;12.18;6.55;;;;;;;21.66;86.24;65263.72;5051682;28;20217;-56
2023/05/31 07:46:38;;;;;;;10.57;6.07;;;;;;;21.85;84.35;65286.78;5051256;28;20213;-59
2023/05/31 07:49:04;;;;;;;7.68;6.05;;;;;;;21.95;83.88;65295.28;5051535;28;20296;-58
2023/05/31 07:51:30;;;;;;;8.18;5.35;;;;;;;21.86;83.14;65285.31;5051280;28;20588;-60
2023/05/31 07:53:56;;;;;;;11.43;5.15;;;;;;;22.26;94.94;65329.59;5050569;28;20224;-58
2023/05/31 07:56:22;;;;;;;5.90;4.63;;;;;;;22.91;93.57;65401.00;5050155;28;20182;-59
2023/05/31 07:58:48;;;;;;;6.57;5.40;;;;;;;23.32;82.25;65446.47;5050571;28;20221;-59
2023/05/31 08:01:13;;;;;;;6.25;5.63;;;;;;;23.63;80.74;65480.81;5051108;28;20216;-59
2023/05/31 08:03:40;;;;;;;6.07;5.45;;;;;;;23.93;74.94;65513.50;5050961;28;20237;-58
2023/05/31 08:06:06;;;;;;;6.90;5.43;;;;;;;24.00;75.20;65521.81;5051039;28;20239;-59
2023/05/31 08:08:32;;;;;;;6.63;5.60;;;;;;;23.68;72.67;65483.22;5051120;28;20292;-58
2023/05/31 08:10:58;;;;;;;7.50;5.82;;;;;;;23.62;71.76;65477.13;5050896;28;20190;-59
2023/05/31 08:13:24;;;;;;;8.40;5.38;;;;;;;23.71;74.21;65489.69;5051041;28;20213;-58
2023/05/31 08:15:50;;;;;;;8.25;5.90;;;;;;;23.76;78.42;65492.09;5050860;28;20716;-57
2023/05/31 08:18:15;;;;;;;6.88;5.25;;;;;;;23.85;71.04;65505.22;5066327;28;20209;-59
2023/05/31 08:20:41;;;;;;;7.93;5.22;;;;;;;23.84;69.31;65504.09;5050709;28;20557;-57
2023/05/31 08:23:06;;;;;;;8.30;5.68;;;;;;;23.83;77.98;65500.41;5050960;28;20258;-63
2023/05/31 08:25:32;;;;;;;6.47;4.82;;;;;;;23.91;76.00;65511.28;5049435;28;20268;-57
2023/05/31 08:27:57;;;;;;;9.05;5.70;;;;;;;24.34;74.43;65561.03;5050537;28;20230;-56
2023/05/31 08:30:22;;;;;;;8.90;6.13;;;;;;;24.64;71.16;65589.13;5050872;28;20188;-57
2023/05/31 08:32:48;;;;;;;6.68;5.38;;;;;;;24.78;71.81;65607.81;5051350;28;20543;-56
2023/05/31 08:35:13;;;;;;;6.15;5.43;;;;;;;25.04;69.53;65635.53;5050879;28;20181;-57
2023/05/31 08:37:40;;;;;;;6.60;5.07;;;;;;;25.06;69.77;65635.19;5052637;28;20194;-59
2023/05/31 08:40:06;;;;;;;5.35;4.55;;;;;;;25.08;71.64;65637.41;5053985;28;20592;-57
2023/05/31 08:42:40;;;;;;;8.93;5.15;;;;;;;25.21;68.81;65654.97;5054030;28;20185;-59
2023/05/31 08:45:08;;;;;;;7.55;4.68;;;;;;;24.90;65.77;65618.56;5054013;28;20209;-58
2023/05/31 08:47:42;;;;;;;6.40;4.90;;;;;;;24.94;68.72;65622.44;5053865;28;20300;-58
2023/05/31 08:50:11;;;;;;;5.75;5.15;;;;;;;24.75;68.81;65601.34;5053991;28;20232;-59
2023/05/31 08:52:37;;;;;;;6.72;5.07;;;;;;;24.48;67.47;65571.94;5054136;28;20190;-56
2023/05/31 08:55:04;;;;;;;7.78;5.20;;;;;;;24.42;66.91;65567.31;5053921;28;20764;-57
2023/05/31 08:57:31;;;;;;;6.43;5.00;;;;;;;24.17;69.03;65537.56;5053971;28;20216;-56
2023/05/31 08:59:57;;;;;;;6.65;5.28;;;;;;;24.12;70.69;65532.00;5054031;28;20274;-56
2023/05/31 09:02:23;;;;;;;6.68;5.15;;;;;;;23.99;70.04;65523.31;5053926;28;20185;-56
2023/05/31 09:04:50;;;;;;;6.32;5.05;;;;;;;23.85;71.96;65505.22;5053841;28;20220;-56
2023/05/31 09:07:16;;;;;;;12.02;5.07;;;;;;;23.65;72.86;65482.47;5053649;28;20225;-56
2023/05/31 09:09:42;;;;;;;5.57;4.53;;;;;;;23.37;73.80;65448.88;5053637;28;20296;-55
2023/05/31 09:12:07;;;;;;;10.10;5.15;;;;;;;23.10;73.94;65420.06;5053685;28;20640;-55
2023/05/31 09:14:34;;;;;;;7.78;4.88;;;;;;;23.09;74.60;65418.38;5053923;28;20205;-55
2023/05/31 09:17:00;;;;;;;5.68;4.80;;;;;;;22.78;76.37;65387.19;5053769;28;20231;-56
2023/05/31 09:19:25;;;;;;;7.13;5.13;;;;;;;22.59;77.02;65366.13;5053207;28;20612;-57
2023/05/31 09:21:52;;;;;;;6.60;5.53;;;;;;;22.41;81.68;65346.75;5052322;28;20612;-58
2023/05/31 09:24:19;;;;;;;10.55;5.10;;;;;;;22.26;80.33;65329.59;5052592;28;20708;-56
2023/05/31 09:26:49;;;;;;;8.93;5.05;;;;;;;22.22;83.46;65323.13;5052482;28;20248;-56
2023/05/31 09:29:17;;;;;;;10.07;6.07;;;;;;;22.03;84.01;65304.69;5053237;28;20255;-56
2023/05/31 09:31:43;;;;;;;8.43;5.65;;;;;;;21.98;83.94;65296.59;5052339;28;20738;-56
2023/05/31 09:34:34;;;;;;;7.35;5.50;;;;;;;21.70;89.12;65268.72;5052844;28;20224;-57
2023/05/31 09:36:59;;;;;;;6.28;5.30;;;;;;;21.79;89.22;65280.69;5053283;28;20193;-57
2023/05/31 09:39:25;;;;;;;9.05;5.78;;;;;;;21.64;91.64;65262.06;5053081;28;20206;-57
2023/05/31 09:41:51;;;;;;;8.48;6.13;;;;;;;21.65;94.25;65260.59;5053428;28;20204;-57
2023/05/31 09:44:17;;;;;;;7.60;5.78;;;;;;;21.60;94.17;65255.09;5052976;28;20213;-56
2023/05/31 09:46:46;;;;;;;6.43;5.80;;;;;;;21.62;96.82;65259.31;5034404;28;20209;-56
2023/05/31 09:49:12;;;;;;;6.05;5.45;;;;;;;21.85;97.81;65284.22;5051958;28;20232;-55
2023/05/31 09:51:38;;;;;;;6.68;5.55;;;;;;;21.97;97.77;65298.06;5053197;28;20211;-55
2023/05/31 09:54:10;;;;;;;11.13;6.18;;;;;;;22.20;97.05;65320.94;5053127;28;20259;-56
2023/05/31 09:56:37;;;;;;;14.05;6.32;;;;;;;22.07;98.85;65308.56;5052917;28;20186;-59
2023/05/31 09:59:04;;;;;;;8.07;6.25;;;;;;;22.25;97.99;65328.47;5053226;28;20221;-58
2023/05/31 10:01:31;;;;;;;10.82;7.78;;;;;;;22.30;97.99;65334.03;5052920;28;20224;-59
2023/05/31 10:03:59;;;;;;;16.23;10.52;;;;;;;22.36;97.59;65338.09;5053142;28;20678;-58
2023/05/31 10:06:25;;;;;;;6.88;5.85;;;;;;;22.53;92.65;65360.03;5052495;28;20213;-59
2023/05/31 10:08:51;;;;;;;10.98;7.55;;;;;;;22.37;94.44;65342.31;5052588;28;20221;-59
2023/05/31 10:11:21;;;;;;;14.73;9.43;;;;;;;22.37;96.46;65342.31;5052702;28;20190;-58
2023/05/31 10:13:49;;;;;;;14.07;7.72;;;;;;;22.45;94.96;65350.63;5052482;28;20217;-58
2023/05/31 10:16:19;;;;;;;8.32;7.25;;;;;;;22.41;94.99;65346.19;5052357;28;20186;-58
2023/05/31 10:18:46;;;;;;;9.50;5.97;;;;;;;22.22;97.25;65325.72;5050607;28;20220;-58
2023/05/31 10:21:24;;;;;;;8.95;6.30;;;;;;;22.05;95.57;65308.91;5052123;28;20189;-59
2023/05/31 10:24:19;;;;;;;9.02;6.13;;;;;;;21.73;94.66;65272.00;5034408;28;20217;-59
2023/05/31 10:26:57;;;;;;;8.70;5.60;;;;;;;21.54;90.50;65251.00;5052297;28;20231;-59
2023/05/31 10:29:43;;;;;;;12.60;6.10;;;;;;;21.14;99.72;65206.78;5052596;28;20307;-59
2023/05/31 10:32:28;;;;;;;9.43;6.03;;;;;;;20.84;98.33;65174.16;5052701;28;20588;-58
2023/05/31 10:34:53;;;;;;;8.18;5.55;;;;;;;20.65;100.00;65155.69;5052332;28;20213;-58
2023/05/31 10:37:21;;;;;;;9.75;5.38;;;;;;;20.42;100.00;65129.72;5052441;28;20242;-57
2023/05/31 10:40:05;;;;;;;9.27;5.65;;;;;;;19.76;94.35;65055.34;5052340;28;20241;-58
2023/05/31 10:42:33;;;;;;;14.38;4.80;;;;;;;19.63;100.00;65045.53;5052338;28;20185;-58
2023/05/31 10:45:10;;;;;;;10.85;5.63;;;;;;;19.62;100.00;65039.88;5052343;28;20217;-59
2023/05/31 10:47:42;;;;;;;7.88;5.15;;;;;;;19.76;100.00;65054.78;5052309;28;20213;-59
2023/05/31 10:50:08;;;;;;;7.32;4.72;;;;;;;19.89;100.00;65069.16;5050797;28;20209;-59
2023/05/31 10:52:33;;;;;;;9.20;4.68;;;;;;;20.04;100.00;65088.25;5052184;28;20193;-60
2023/05/31 10:55:17;;;;;;;6.70;4.60;;;;;;;20.28;100.00;65114.78;5067439;28;20213;-59
2023/05/31 10:57:43;;;;;;;9.20;5.20;;;;;;;20.32;100.00;65116.66;5050717;28;20197;-60
2023/05/31 11:00:11;;;;;;;6.85;5.45;;;;;;;20.53;100.00;65139.88;5049646;28;20702;-59
2023/05/31 11:02:45;;;;;;;6.65;5.35;;;;;;;20.75;100.00;65164.19;5051846;28;20182;-59
2023/05/31 11:05:26;;;;;;;8.30;5.00;;;;;;;20.93;100.00;65183.53;5052043;28;20213;-59
2023/05/31 11:07:52;;;;;;;9.63;5.00;;;;;;;21.28;100.00;65222.25;5052173;28;20690;-61
2023/05/31 11:10:29;;;;;;;7.10;5.55;;;;;;;21.66;100.00;65264.28;5051825;28;20184;-60
2023/05/31 11:13:03;;;;;;;8.85;5.90;;;;;;;21.74;100.00;65273.13;5052023;28;20195;-58
2023/05/31 11:15:40;;;;;;;9.68;6.20;;;;;;;21.91;100.00;65288.28;5051851;28;20189;-59
2023/05/31 11:18:14;;;;;;;10.63;5.60;;;;;;;22.28;100.00;65334.38;5051771;28;20263;-58
2023/05/31 11:20:39;;;;;;;6.45;5.75;;;;;;;23.29;100.00;65443.66;5051547;28;20268;-58
2023/05/31 11:23:24;;;;;;;8.15;6.00;;;;;;;24.41;100.00;65564.19;5051667;28;20277;-56
2023/05/31 11:26:08;;;;;;;6.25;5.38;;;;;;;25.02;97.97;65633.31;5051788;28;20192;-56
2023/05/31 11:29:03;;;;;;;5.95;5.32;;;;;;;25.50;90.66;65687.19;5051588;28;20286;-56